createdAt,value
2022-10-14T00:02:06.818Z,99067.00
2022-10-14T00:04:33.735Z,99066.47
2022-10-14T00:07:01.131Z,99068.78
2022-10-14T00:09:27.888Z,99066.00
2022-10-14T00:11:54.786Z,99057.97
2022-10-14T00:14:22.430Z,99060.59
2022-10-14T00:16:53.193Z,99062.88
2022-10-14T00:19:20.021Z,99061.72
2022-10-14T00:21:47.134Z,99061.44
2022-10-14T00:24:16.489Z,99070.16
2022-10-14T00:26:43.606Z,99052.94
2022-10-14T00:29:14.941Z,99062.34
2022-10-14T00:31:42.066Z,99064.06
2022-10-14T00:34:08.917Z,99061.88
2022-10-14T00:36:36.220Z,99058.06
2022-10-14T00:39:03.277Z,99055.84
2022-10-14T00:41:32.493Z,99055.56
2022-10-14T00:44:31.959Z,99052.09
2022-10-14T00:46:58.856Z,99054.97
2022-10-14T00:49:29.948Z,99050.59
2022-10-14T00:52:18.330Z,99055.56
2022-10-14T00:54:51.331Z,99057.50
2022-10-14T00:57:19.343Z,99055.38
2022-10-14T00:59:46.408Z,99049.91
2022-10-14T01:02:13.321Z,99051.19
2022-10-14T01:04:41.576Z,99057.66
2022-10-14T01:07:46.667Z,99061.63
2022-10-14T01:10:38.122Z,99057.34
2022-10-14T01:13:15.065Z,99053.59
2022-10-14T01:16:24.451Z,99059.84
2022-10-14T01:19:22.450Z,99056.59
2022-10-14T01:21:56.457Z,99055.47
2022-10-14T01:24:45.172Z,99047.56
2022-10-14T01:27:44.264Z,99047.56
2022-10-14T01:30:17.492Z,99049.88
2022-10-14T01:32:48.382Z,99044.78
2022-10-14T01:35:47.465Z,99044.22
2022-10-14T01:38:22.899Z,99040.94
2022-10-14T01:40:57.213Z,99045.59
2022-10-14T01:43:24.108Z,99041.59
2022-10-14T01:45:52.524Z,99036.69
2022-10-14T01:48:21.186Z,99031.38
2022-10-14T01:50:50.659Z,99029.88
2022-10-14T01:53:31.775Z,99029.25
2022-10-14T01:55:59.102Z,99028.97
2022-10-14T01:58:27.960Z,99033.25
2022-10-14T02:00:55.126Z,99030.28
2022-10-14T02:03:22.267Z,99034.38
2022-10-14T02:06:00.425Z,99030.91
2022-10-14T02:09:04.743Z,99022.56
2022-10-14T02:11:38.537Z,99014.97
2022-10-14T02:14:09.226Z,99015.41
2022-10-14T02:16:47.578Z,99017.34
2022-10-14T02:19:17.530Z,99013.69
2022-10-14T02:22:00.780Z,99008.69
2022-10-14T02:24:27.575Z,99019.09
2022-10-14T02:26:56.159Z,99003.69
2022-10-14T02:29:23.998Z,99014.13
2022-10-14T02:31:51.994Z,99011.34
2022-10-14T02:34:21.955Z,99006.06
2022-10-14T02:36:49.240Z,99015.94
2022-10-14T02:39:24.008Z,99010.19
2022-10-14T02:41:51.162Z,99011.19
2022-10-14T02:44:18.126Z,99007.72
2022-10-14T02:46:45.175Z,99007.28
2022-10-14T02:49:12.138Z,98997.72
2022-10-14T02:51:39.252Z,99002.16
2022-10-14T02:54:06.219Z,99000.19
2022-10-14T02:56:33.247Z,99002.81
2022-10-14T02:59:00.277Z,98994.09
2022-10-14T03:01:27.276Z,98989.97
2022-10-14T03:03:54.158Z,98979.44
2022-10-14T03:06:21.764Z,98977.44
2022-10-14T03:08:48.773Z,98981.06
2022-10-14T03:11:15.609Z,98982.34
2022-10-14T03:13:42.682Z,98976.09
2022-10-14T03:16:09.616Z,98980.78
2022-10-14T03:18:36.453Z,98971.19
2022-10-14T03:21:03.696Z,98974.50
2022-10-14T03:23:30.728Z,98970.22
2022-10-14T03:25:57.717Z,98979.63
2022-10-14T03:28:24.578Z,98970.91
2022-10-14T03:30:51.844Z,98979.09
2022-10-14T03:33:20.704Z,98971.38
2022-10-14T03:35:47.589Z,98977.44
2022-10-14T03:38:14.479Z,98967.59
2022-10-14T03:40:41.371Z,98968.25
2022-10-14T03:43:08.290Z,98965.25
2022-10-14T03:45:35.195Z,98958.00
2022-10-14T03:48:02.028Z,98971.56
2022-10-14T03:50:28.802Z,98966.97
2022-10-14T03:52:56.254Z,98962.34
2022-10-14T03:55:23.386Z,98960.72
2022-10-14T03:57:50.259Z,98953.78
2022-10-14T04:00:17.238Z,98959.06
2022-10-14T04:02:44.083Z,98970.94
2022-10-14T04:05:11.733Z,98966.63
2022-10-14T04:07:39.123Z,98961.38
2022-10-14T04:10:07.107Z,98966.63
2022-10-14T04:12:33.854Z,98963.72
2022-10-14T04:15:00.568Z,98968.03
2022-10-14T04:17:27.340Z,98970.66
2022-10-14T04:19:54.048Z,98972.59
2022-10-14T04:22:23.478Z,98973.28
2022-10-14T04:24:50.961Z,98973.75
2022-10-14T04:27:18.294Z,98963.19
2022-10-14T04:29:45.263Z,98964.34
2022-10-14T04:32:12.397Z,98957.25
2022-10-14T04:34:39.169Z,98963.03
2022-10-14T04:37:06.610Z,98961.22
2022-10-14T04:39:34.593Z,98969.28
2022-10-14T04:42:02.615Z,98960.72
2022-10-14T04:44:29.969Z,98963.50
2022-10-14T04:46:56.779Z,98966.97
2022-10-14T04:49:24.336Z,98959.88
2022-10-14T04:51:52.149Z,98954.94
2022-10-14T04:54:19.086Z,98959.06
2022-10-14T04:56:46.332Z,98957.72
2022-10-14T04:59:14.609Z,98953.09
2022-10-14T05:01:41.396Z,98959.56
2022-10-14T05:04:08.919Z,98958.06
2022-10-14T05:06:37.697Z,98944.91
2022-10-14T05:09:07.756Z,98941.13
2022-10-14T05:11:34.656Z,98946.56
2022-10-14T05:14:01.484Z,98945.72
2022-10-14T05:16:28.407Z,98942.13
2022-10-14T05:18:55.558Z,98941.94
2022-10-14T05:21:22.420Z,98937.34
2022-10-14T05:23:49.248Z,98937.34
2022-10-14T05:26:16.101Z,98937.06
2022-10-14T05:28:43.104Z,98935.09
2022-10-14T05:31:11.129Z,98935.91
2022-10-14T05:33:38.180Z,98931.47
2022-10-14T05:36:05.412Z,98929.16
2022-10-14T05:38:34.255Z,98924.06
2022-10-14T05:41:01.936Z,98929.19
2022-10-14T05:43:32.331Z,98925.47
2022-10-14T05:46:00.671Z,98934.59
2022-10-14T05:48:27.589Z,98933.47
2022-10-14T05:50:54.549Z,98933.47
2022-10-14T05:53:21.500Z,98936.75
2022-10-14T05:55:48.705Z,98926.50
2022-10-14T05:58:15.593Z,98929.34
2022-10-14T06:00:42.707Z,98939.53
2022-10-14T06:03:12.471Z,98943.66
2022-10-14T06:05:39.380Z,98932.31
2022-10-14T06:08:06.751Z,98942.22
2022-10-14T06:10:35.370Z,98939.75
2022-10-14T06:13:02.832Z,98936.97
2022-10-14T06:15:29.747Z,98936.97
2022-10-14T06:17:56.728Z,98941.75
2022-10-14T06:20:23.683Z,98936.44
2022-10-14T06:22:50.631Z,98944.88
2022-10-14T06:25:17.744Z,98941.88
2022-10-14T06:27:44.593Z,98944.34
2022-10-14T06:30:12.366Z,98947.94
2022-10-14T06:32:39.406Z,98956.41
2022-10-14T06:35:07.027Z,98945.00
2022-10-14T06:37:33.832Z,98942.03
2022-10-14T06:40:00.705Z,98935.31
2022-10-14T06:42:27.827Z,98944.38
2022-10-14T06:44:54.834Z,98942.09
2022-10-14T06:47:21.658Z,98942.16
2022-10-14T06:49:48.745Z,98934.22
2022-10-14T06:52:15.482Z,98941.16
2022-10-14T06:54:48.025Z,98939.16
2022-10-14T06:57:15.915Z,98941.31
2022-10-14T06:59:42.786Z,98933.94
2022-10-14T07:02:10.364Z,98942.34
2022-10-14T07:04:37.064Z,98944.16
2022-10-14T07:07:03.852Z,98941.06
2022-10-14T07:09:30.996Z,98943.84
2022-10-14T07:11:57.795Z,98941.22
2022-10-14T07:14:24.700Z,98950.47
2022-10-14T07:16:51.504Z,98943.19
2022-10-14T07:19:18.371Z,98931.31
2022-10-14T07:21:46.964Z,98945.69
2022-10-14T07:24:14.093Z,98941.25
2022-10-14T07:26:40.978Z,98945.53
2022-10-14T07:29:08.158Z,98958.06
2022-10-14T07:31:35.433Z,98955.13
2022-10-14T07:34:02.463Z,98959.59
2022-10-14T07:36:29.908Z,98955.13
2022-10-14T07:38:56.962Z,98958.25
2022-10-14T07:41:25.250Z,98952.84
2022-10-14T07:43:54.766Z,98965.19
2022-10-14T07:46:29.920Z,98962.06
2022-10-14T07:48:58.033Z,98964.03
2022-10-14T07:51:25.988Z,98951.69
2022-10-14T07:53:53.393Z,98950.53
2022-10-14T07:56:20.845Z,98954.81
2022-10-14T07:58:48.128Z,98946.22
2022-10-14T08:01:16.328Z,98953.31
2022-10-14T08:03:44.035Z,98952.84
2022-10-14T08:06:11.806Z,98951.38
2022-10-14T08:08:39.422Z,98953.50
2022-10-14T08:11:15.580Z,98953.19
2022-10-14T08:13:45.987Z,98944.09
2022-10-14T08:16:25.259Z,98947.91
2022-10-14T08:18:53.451Z,98951.84
2022-10-14T08:21:21.300Z,98950.88
2022-10-14T08:23:48.587Z,98948.41
2022-10-14T08:26:32.955Z,98949.22
2022-10-14T08:29:01.695Z,98946.09
2022-10-14T08:31:29.177Z,98950.06
2022-10-14T08:33:56.003Z,98953.69
2022-10-14T08:36:23.336Z,98950.56
2022-10-14T08:38:52.252Z,98949.06
2022-10-14T08:41:37.781Z,98954.72
2022-10-14T08:44:14.986Z,98953.25
2022-10-14T08:46:55.227Z,98947.28
2022-10-14T08:50:04.240Z,98948.28
2022-10-14T08:52:37.518Z,98949.63
2022-10-14T08:55:28.526Z,98953.25
2022-10-14T08:58:01.191Z,98949.63
2022-10-14T09:00:30.269Z,98954.88
2022-10-14T09:02:59.010Z,98945.16
2022-10-14T09:05:26.704Z,98952.91
2022-10-14T09:07:55.916Z,98942.34
2022-10-14T09:10:32.703Z,98930.13
2022-10-14T09:13:06.800Z,98936.56
2022-10-14T09:15:38.399Z,98936.38
2022-10-14T09:18:20.118Z,98929.75
2022-10-14T09:20:47.489Z,98925.47
2022-10-14T09:23:19.680Z,98920.34
2022-10-14T09:25:54.675Z,98916.91
2022-10-14T09:28:23.824Z,98907.50
2022-10-14T09:30:50.703Z,98905.81
2022-10-14T09:33:20.041Z,98912.28
2022-10-14T09:35:47.620Z,98907.47
2022-10-14T09:38:14.711Z,98900.22
2022-10-14T09:40:47.355Z,98906.66
2022-10-14T09:43:19.314Z,98906.81
2022-10-14T09:45:52.297Z,98910.47
2022-10-14T09:48:38.335Z,98908.16
2022-10-14T09:51:19.525Z,98906.97
2022-10-14T09:54:06.824Z,98912.56
2022-10-14T09:56:42.044Z,98896.06
2022-10-14T09:59:21.795Z,98902.66
2022-10-14T10:01:51.036Z,98902.66
2022-10-14T10:04:50.914Z,98907.94
2022-10-14T10:07:43.943Z,98899.00
2022-10-14T10:10:19.075Z,98893.22
2022-10-14T10:12:47.539Z,98889.09
2022-10-14T10:15:20.302Z,98892.06
2022-10-14T10:17:48.064Z,98888.63
2022-10-14T10:20:33.887Z,98878.34
2022-10-14T10:23:25.336Z,98884.13
2022-10-14T10:25:52.810Z,98882.97
2022-10-14T10:28:28.279Z,98887.09
2022-10-14T10:31:06.972Z,98879.81
2022-10-14T10:33:54.392Z,98872.88
2022-10-14T10:36:41.618Z,98877.81
2022-10-14T10:39:44.235Z,98875.03
2022-10-14T10:42:26.333Z,98863.44
2022-10-14T10:45:09.815Z,98858.47
2022-10-14T10:48:01.356Z,98859.31
2022-10-14T10:51:09.362Z,98858.63
2022-10-14T10:53:46.095Z,98855.91
2022-10-14T10:56:13.800Z,98848.28
2022-10-14T10:59:07.885Z,98848.28
2022-10-14T11:01:54.058Z,98845.63
2022-10-14T11:04:33.465Z,98831.72
2022-10-14T11:07:45.751Z,98840.31
2022-10-14T11:10:50.439Z,98835.53
2022-10-14T11:13:39.099Z,98831.84
2022-10-14T11:16:16.135Z,98827.03
2022-10-14T11:18:50.781Z,98823.22
2022-10-14T11:21:26.479Z,98824.47
2022-10-14T11:24:20.849Z,98808.97
2022-10-14T11:27:11.844Z,98810.38
2022-10-14T11:30:20.830Z,98813.69
2022-10-14T11:33:26.083Z,98800.03
2022-10-14T11:36:31.806Z,98797.84
2022-10-14T11:39:08.417Z,98788.84
2022-10-14T11:41:56.866Z,98781.72
2022-10-14T11:47:06.048Z,98781.00
2022-10-14T11:49:46.428Z,98781.38
2022-10-14T11:52:22.028Z,98781.38
2022-10-14T11:54:54.402Z,98779.94
2022-10-14T11:57:33.017Z,98779.28
2022-10-14T12:00:13.615Z,98771.44
2022-10-14T12:03:21.812Z,98767.38
2022-10-14T12:06:34.769Z,98752.66
2022-10-14T12:09:10.842Z,98759.25
2022-10-14T12:11:47.137Z,98754.28
2022-10-14T12:16:48.906Z,98733.00
2022-10-14T12:19:27.480Z,98754.75
2022-10-14T12:22:01.930Z,98745.63
2022-10-14T12:24:37.378Z,98743.06
2022-10-14T12:27:06.496Z,98732.03
2022-10-14T12:29:38.455Z,98734.94
2022-10-14T12:32:05.316Z,98732.75
2022-10-14T12:34:38.145Z,98727.47
2022-10-14T12:37:43.339Z,98721.50
2022-10-14T12:40:28.243Z,98732.94
2022-10-14T12:42:59.205Z,98737.88
2022-10-14T12:45:31.858Z,98727.53
2022-10-14T12:48:31.916Z,98723.63
2022-10-14T12:51:28.763Z,98720.69
2022-10-14T12:54:08.318Z,98715.84
2022-10-14T12:56:39.662Z,98707.31
2022-10-14T12:59:09.026Z,98706.88
2022-10-14T13:01:36.668Z,98703.66
2022-10-14T13:04:10.127Z,98701.84
2022-10-14T13:06:43.003Z,98699.47
2022-10-14T13:09:32.584Z,98695.28
2022-10-14T13:12:23.507Z,98687.41
2022-10-14T13:15:23.175Z,98688.28
2022-10-14T13:17:50.119Z,98679.41
2022-10-14T13:20:44.370Z,98670.88
2022-10-14T13:23:32.088Z,98672.59
2022-10-14T13:26:25.828Z,98682.63
2022-10-14T13:29:23.299Z,98673.69
2022-10-14T13:32:25.949Z,98668.63
2022-10-14T13:35:22.775Z,98667.53
2022-10-14T13:38:01.655Z,98667.72
2022-10-14T13:40:40.717Z,98674.66
2022-10-14T13:43:42.743Z,98674.03
2022-10-14T13:46:21.456Z,98669.34
2022-10-14T13:48:51.377Z,98659.41
2022-10-14T13:51:38.049Z,98663.44
2022-10-14T13:54:23.064Z,98659.31
2022-10-14T13:57:47.970Z,98665.38
2022-10-14T14:00:44.219Z,98659.31
2022-10-14T14:03:31.811Z,98656.69
2022-10-14T14:05:59.600Z,98658.06
2022-10-14T14:08:41.525Z,98639.06
2022-10-14T14:11:18.540Z,98644.53
2022-10-14T14:14:01.239Z,98643.84
2022-10-14T14:16:39.698Z,98638.44
2022-10-14T14:19:09.201Z,98625.94
2022-10-14T14:21:37.883Z,98630.47
2022-10-14T14:24:16.123Z,98632.63
2022-10-14T14:26:42.928Z,98631.25
2022-10-14T14:29:21.622Z,98628.38
2022-10-14T14:34:38.349Z,98619.38
2022-10-14T14:40:23.011Z,98620.41
2022-10-14T14:42:54.061Z,98606.09
2022-10-14T14:45:31.254Z,98598.59
2022-10-14T14:48:03.434Z,98598.59
2022-10-14T14:50:40.699Z,98587.72
2022-10-14T14:53:11.757Z,98592.84
2022-10-14T14:56:02.818Z,98583.88
2022-10-14T14:58:47.700Z,98570.88
2022-10-14T15:01:30.154Z,98566.59
2022-10-14T15:04:14.696Z,98573.28
2022-10-14T15:06:51.168Z,98573.28
2022-10-14T15:09:35.984Z,98576.09
2022-10-14T15:12:05.838Z,98565.06
2022-10-14T15:14:49.308Z,98568.81
2022-10-14T15:17:36.533Z,98570.81
2022-10-14T15:20:36.708Z,98556.34
2022-10-14T15:23:39.754Z,98560.63
2022-10-14T15:26:30.602Z,98561.03
2022-10-14T15:29:18.961Z,98558.13
2022-10-14T15:32:07.035Z,98550.78
2022-10-14T15:34:36.602Z,98542.22
2022-10-14T15:37:03.798Z,98544.19
2022-10-14T15:39:30.583Z,98539.75
2022-10-14T15:41:57.446Z,98545.75
2022-10-14T15:44:24.628Z,98545.06
2022-10-14T15:47:10.899Z,98549.50
2022-10-14T15:49:41.615Z,98546.00
2022-10-14T15:52:14.593Z,98539.31
2022-10-14T15:54:44.191Z,98540.66
2022-10-14T15:57:15.694Z,98550.00
2022-10-14T15:59:44.841Z,98544.81
2022-10-14T16:02:20.774Z,98549.94
2022-10-14T16:05:00.802Z,98551.81
2022-10-14T16:07:34.786Z,98550.72
2022-10-14T16:10:02.712Z,98543.50
2022-10-14T16:12:30.108Z,98541.00
2022-10-14T16:14:57.250Z,98536.63
2022-10-14T16:17:24.496Z,98530.50
2022-10-14T16:19:54.333Z,98524.41
2022-10-14T16:22:21.437Z,98520.91
2022-10-14T16:24:48.701Z,98520.56
2022-10-14T16:27:16.089Z,98511.06
2022-10-14T16:29:43.344Z,98515.63
2022-10-14T16:32:10.667Z,98507.31
2022-10-14T16:34:37.820Z,98514.88
2022-10-14T16:37:07.984Z,98510.41
2022-10-14T16:39:36.825Z,98508.78
2022-10-14T16:42:04.609Z,98515.75
2022-10-14T16:44:32.013Z,98510.22
2022-10-14T16:47:17.815Z,98503.41
2022-10-14T16:49:49.816Z,98509.88
2022-10-14T16:52:17.289Z,98517.16
2022-10-14T16:54:44.969Z,98511.44
2022-10-14T16:57:13.835Z,98507.16
2022-10-14T16:59:42.105Z,98516.72
2022-10-14T17:02:14.528Z,98516.84
2022-10-14T17:04:43.137Z,98512.91
2022-10-14T17:07:10.527Z,98509.91
2022-10-14T17:09:41.802Z,98514.19
2022-10-14T17:12:13.996Z,98509.63
2022-10-14T17:14:41.676Z,98509.81
2022-10-14T17:17:13.841Z,98503.44
2022-10-14T17:19:45.953Z,98503.47
2022-10-14T17:22:14.210Z,98497.88
2022-10-14T17:24:42.055Z,98500.78
2022-10-14T17:27:09.803Z,98498.44
2022-10-14T17:29:37.886Z,98501.53
2022-10-14T17:32:05.771Z,98500.34
2022-10-14T17:34:33.715Z,98501.53
2022-10-14T17:37:01.021Z,98498.72
2022-10-14T17:39:29.674Z,98504.75
2022-10-14T17:41:58.147Z,98500.31
2022-10-14T17:44:25.609Z,98499.88
2022-10-14T17:46:54.477Z,98494.31
2022-10-14T17:49:22.611Z,98500.56
2022-10-14T17:51:49.911Z,98506.44
2022-10-14T17:54:16.800Z,98498.41
2022-10-14T17:56:44.050Z,98497.94
2022-10-14T17:59:15.802Z,98494.88
2022-10-14T18:02:01.715Z,98489.13
2022-10-14T18:04:30.693Z,98485.00
2022-10-14T18:06:59.270Z,98482.38
2022-10-14T18:09:27.273Z,98479.72
2022-10-14T18:12:10.800Z,98477.72
2022-10-14T18:14:39.195Z,98473.44
2022-10-14T18:17:06.786Z,98484.19
2022-10-14T18:19:34.299Z,98478.28
2022-10-14T18:22:02.271Z,98475.81
2022-10-14T18:24:30.921Z,98476.38
2022-10-14T18:26:57.917Z,98470.06
2022-10-14T18:29:26.026Z,98465.59
2022-10-14T18:31:53.128Z,98461.28
2022-10-14T18:34:22.649Z,98465.66
2022-10-14T18:36:49.799Z,98449.34
2022-10-14T18:39:17.290Z,98450.97
2022-10-14T18:41:45.339Z,98450.06
2022-10-14T18:44:13.108Z,98447.88
2022-10-14T18:46:40.575Z,98444.22
2022-10-14T18:49:11.090Z,98445.84
2022-10-14T18:51:39.921Z,98446.50
2022-10-14T18:54:19.117Z,98439.75
2022-10-14T18:56:47.169Z,98435.47
2022-10-14T18:59:22.589Z,98430.09
2022-10-14T19:01:54.003Z,98436.00
2022-10-14T19:04:25.447Z,98433.75
2022-10-14T19:06:52.653Z,98420.16
2022-10-14T19:09:29.458Z,98420.97
2022-10-14T19:11:59.450Z,98427.91
2022-10-14T19:14:29.008Z,98418.50
2022-10-14T19:17:00.027Z,98417.41
2022-10-14T19:19:27.327Z,98418.88
2022-10-14T19:21:57.702Z,98420.25
2022-10-14T19:24:25.848Z,98418.41
2022-10-14T19:26:54.343Z,98416.59
2022-10-14T19:29:22.533Z,98418.16
2022-10-14T19:31:50.543Z,98416.59
2022-10-14T19:34:18.945Z,98410.31
2022-10-14T19:36:49.047Z,98411.69
2022-10-14T19:39:19.923Z,98414.03
2022-10-14T19:41:48.532Z,98405.09
2022-10-14T19:44:16.932Z,98400.09
2022-10-14T19:46:45.601Z,98396.09
2022-10-14T19:49:14.490Z,98398.84
2022-10-14T19:51:42.241Z,98395.81
2022-10-14T19:54:16.688Z,98389.25
2022-10-14T19:56:43.735Z,98389.16
2022-10-14T19:59:14.399Z,98386.16
2022-10-14T20:01:42.429Z,98391.81
2022-10-14T20:04:09.727Z,98391.19
2022-10-14T20:06:39.249Z,98395.63
2022-10-14T20:09:07.962Z,98395.91
2022-10-14T20:11:36.365Z,98384.69
2022-10-14T20:14:03.683Z,98384.69
2022-10-14T20:16:30.599Z,98371.84
2022-10-14T20:18:58.409Z,98393.88
2022-10-14T20:21:25.659Z,98392.81
2022-10-14T20:23:52.585Z,98385.16
2022-10-14T20:26:22.240Z,98385.78
2022-10-14T20:28:50.263Z,98376.56
2022-10-14T20:31:20.611Z,98387.13
2022-10-14T20:33:49.819Z,98377.13
2022-10-14T20:36:19.372Z,98366.09
2022-10-14T20:38:48.081Z,98374.56
2022-10-14T20:41:21.966Z,98373.75
2022-10-14T20:43:49.755Z,98375.41
2022-10-14T20:46:18.634Z,98381.53
2022-10-14T20:48:46.678Z,98376.41
2022-10-14T20:51:16.991Z,98382.59
2022-10-14T20:53:49.880Z,98377.47
2022-10-14T20:56:21.083Z,98374.66
2022-10-14T20:58:58.798Z,98376.28
2022-10-14T21:01:26.989Z,98372.19
2022-10-14T21:03:55.727Z,98365.28
2022-10-14T21:06:24.573Z,98369.06
2022-10-14T21:08:53.956Z,98369.72
2022-10-14T21:11:24.447Z,98362.97
2022-10-14T21:13:56.793Z,98357.06
2022-10-14T21:16:27.496Z,98352.50
2022-10-14T21:19:00.749Z,98355.31
2022-10-14T21:21:30.053Z,98360.22
2022-10-14T21:23:58.937Z,98348.13
2022-10-14T21:26:27.943Z,98357.31
2022-10-14T21:28:59.383Z,98352.50
2022-10-14T21:31:28.587Z,98343.09
2022-10-14T21:34:04.121Z,98346.72
2022-10-14T21:36:33.314Z,98341.25
2022-10-14T21:39:04.460Z,98344.34
2022-10-14T21:41:31.535Z,98338.06
2022-10-14T21:44:01.064Z,98341.34
2022-10-14T21:46:29.575Z,98334.97
2022-10-14T21:48:58.174Z,98336.41
2022-10-14T21:51:31.807Z,98326.03
2022-10-14T21:53:59.562Z,98325.22
2022-10-14T21:56:27.532Z,98323.56
2022-10-14T21:58:54.972Z,98321.13
2022-10-14T22:01:30.496Z,98326.41
2022-10-14T22:04:05.147Z,98336.97
2022-10-14T22:06:35.083Z,98334.25
2022-10-14T22:09:09.019Z,98333.16
2022-10-14T22:11:39.085Z,98318.59
2022-10-14T22:14:10.116Z,98316.00
2022-10-14T22:16:38.380Z,98324.13
2022-10-14T22:19:07.883Z,98315.19
2022-10-14T22:21:40.556Z,98313.94
2022-10-14T22:24:09.205Z,98319.03
2022-10-14T22:26:37.981Z,98314.19
2022-10-14T22:29:08.784Z,98312.91
2022-10-14T22:31:36.475Z,98303.97
2022-10-14T22:34:05.715Z,98301.16
2022-10-14T22:36:34.920Z,98294.66
2022-10-14T22:39:05.164Z,98295.25
2022-10-14T22:41:35.720Z,98288.94
2022-10-14T22:44:04.806Z,98283.47
2022-10-14T22:46:33.829Z,98282.00
2022-10-14T22:49:02.913Z,98284.66
2022-10-14T22:51:33.617Z,98285.66
2022-10-14T22:54:00.512Z,98292.59
2022-10-14T22:56:30.061Z,98285.84
2022-10-14T22:59:02.373Z,98287.03
2022-10-14T23:01:31.942Z,98283.75
2022-10-14T23:04:01.705Z,98276.06
2022-10-14T23:06:29.446Z,98274.25
2022-10-14T23:09:01.035Z,98275.09
2022-10-14T23:11:30.961Z,98273.06
2022-10-14T23:14:01.619Z,98273.66
2022-10-14T23:16:32.189Z,98262.84
2022-10-14T23:19:00.174Z,98266.16
2022-10-14T23:21:29.989Z,98272.25
2022-10-14T23:23:59.334Z,98264.50
2022-10-14T23:26:28.921Z,98274.09
2022-10-14T23:28:57.876Z,98266.78
2022-10-14T23:31:27.902Z,98274.53
2022-10-14T23:33:55.571Z,98271.78
2022-10-14T23:36:23.689Z,98273.06
2022-10-14T23:38:55.229Z,98273.06
2022-10-14T23:41:24.735Z,98273.44
2022-10-14T23:43:54.422Z,98269.41
2022-10-14T23:46:22.043Z,98261.31
2022-10-14T23:49:06.785Z,98265.75
2022-10-14T23:51:41.472Z,98258.22
2022-10-14T23:54:08.315Z,98263.50
2022-10-14T23:56:35.598Z,98252.53
2022-10-14T23:59:08.193Z,98253.38
